createdAt,value
2019-02-21T00:01:07.695Z,1026.14
2019-02-21T00:06:07.456Z,1026.12
2019-02-21T00:11:07.799Z,1026.08
2019-02-21T00:16:07.681Z,1026.17
2019-02-21T00:20:07.557Z,1026.17
2019-02-21T00:25:06.878Z,1026.2
2019-02-21T00:30:08.960Z,1026.23
2019-02-21T00:35:07.110Z,1026.17
2019-02-21T00:40:08.024Z,1026.29
2019-02-21T00:45:08.752Z,1026.25
2019-02-21T00:50:07.247Z,1026.15
2019-02-21T00:55:06.459Z,1026.24
2019-02-21T00:59:08.177Z,1026.27
2019-02-21T01:04:06.910Z,1026.27
2019-02-21T01:09:07.836Z,1026.26
2019-02-21T01:14:07.166Z,1026.26
2019-02-21T01:19:07.811Z,1026.26
2019-02-21T01:24:07.045Z,1026.28
2019-02-21T01:29:07.543Z,1026.27
2019-02-21T01:34:06.742Z,1026.27
2019-02-21T01:38:07.758Z,1026.26
2019-02-21T01:43:07.040Z,1026.25
2019-02-21T01:48:07.389Z,1026.21
2019-02-21T01:53:07.271Z,1026.13
2019-02-21T01:58:07.103Z,1026.09
2019-02-21T02:03:10.657Z,1025.98
2019-02-21T02:08:07.264Z,1025.98
2019-02-21T02:13:08.881Z,1025.99
2019-02-21T02:17:08.367Z,1025.89
2019-02-21T02:22:07.278Z,1025.96
2019-02-21T02:27:07.173Z,1025.99
2019-02-21T02:32:10.742Z,1026.11
2019-02-21T02:37:07.738Z,1026.05
2019-02-21T02:42:07.975Z,1025.94
2019-02-21T02:47:07.698Z,1025.92
2019-02-21T02:52:07.619Z,1025.98
2019-02-21T02:56:07.912Z,1025.88
2019-02-21T03:01:07.255Z,1025.87
2019-02-21T03:06:07.291Z,1025.84
2019-02-21T03:11:07.690Z,1025.84
2019-02-21T03:16:07.155Z,1025.89
2019-02-21T03:21:07.216Z,1025.87
2019-02-21T03:26:07.246Z,1025.94
2019-02-21T03:31:08.029Z,1026
2019-02-21T03:35:08.252Z,1026.01
2019-02-21T03:40:06.829Z,1026.04
2019-02-21T03:45:08.922Z,1026.04
2019-02-21T03:50:07.278Z,1026.14
2019-02-21T03:55:07.941Z,1026.15
2019-02-21T04:00:09.641Z,1026.13
2019-02-21T04:05:07.272Z,1026.13
2019-02-21T04:10:07.555Z,1026.18
2019-02-21T04:14:07.761Z,1026.18
2019-02-21T04:19:07.499Z,1026.13
2019-02-21T04:24:07.721Z,1026.07
2019-02-21T04:29:07.265Z,1026.03
2019-02-21T04:34:07.079Z,1026.04
2019-02-21T04:39:08.462Z,1026.08
2019-02-21T04:44:07.069Z,1026.12
2019-02-21T04:49:08.073Z,1026.04
2019-02-21T04:53:07.450Z,1026.05
2019-02-21T04:58:07.142Z,1026.08
2019-02-21T05:03:07.746Z,1025.99
2019-02-21T05:08:07.404Z,1025.99
2019-02-21T05:13:07.262Z,1025.99
2019-02-21T05:18:07.760Z,1026.03
2019-02-21T05:23:07.106Z,1025.94
2019-02-21T05:28:07.770Z,1025.9
2019-02-21T05:32:08.274Z,1025.79
2019-02-21T05:37:07.216Z,1025.8
2019-02-21T05:42:07.944Z,1025.73
2019-02-21T05:47:07.909Z,1025.75
2019-02-21T05:52:07.775Z,1025.8
2019-02-21T05:57:07.730Z,1025.87
2019-02-21T06:02:07.536Z,1025.86
2019-02-21T06:07:09.740Z,1025.9
2019-02-21T06:11:07.930Z,1025.92
2019-02-21T06:16:07.650Z,1025.91
2019-02-21T06:21:07.691Z,1025.81
2019-02-21T06:26:06.497Z,1025.91
2019-02-21T06:31:07.405Z,1025.92
2019-02-21T06:36:07.433Z,1025.93
2019-02-21T06:41:07.209Z,1025.95
2019-02-21T06:46:07.774Z,1025.91
2019-02-21T06:50:07.046Z,1025.97
2019-02-21T06:55:07.971Z,1025.99
2019-02-21T06:56:07.157Z,1025.99
2019-02-21T07:00:09.399Z,1025.93
2019-02-21T07:05:06.559Z,1025.94
2019-02-21T07:10:07.659Z,1025.96
2019-02-21T07:15:08.425Z,1026
2019-02-21T07:20:07.858Z,1026.01
2019-02-21T07:25:07.171Z,1026.01
2019-02-21T07:29:07.915Z,1026.03
2019-02-21T07:34:08.179Z,1026.1
2019-02-21T07:35:06.608Z,1026.1
2019-02-21T07:39:21.493Z,1026.11
2019-02-21T07:44:12.691Z,1026.2
2019-02-21T07:49:07.274Z,1026.3
2019-02-21T07:54:07.201Z,1026.25
2019-02-21T07:59:07.150Z,1026.31
2019-02-21T08:04:07.500Z,1026.29
2019-02-21T08:08:10.363Z,1026.27
2019-02-21T08:13:07.952Z,1026.33
2019-02-21T08:18:07.103Z,1026.41
2019-02-21T08:23:07.923Z,1026.45
2019-02-21T08:28:07.811Z,1026.44
2019-02-21T08:33:07.598Z,1026.41
2019-02-21T08:38:07.431Z,1026.39
2019-02-21T08:43:07.645Z,1026.35
2019-02-21T08:47:07.828Z,1026.32
2019-02-21T08:52:06.909Z,1026.3
2019-02-21T08:57:07.541Z,1026.29
2019-02-21T09:02:07.673Z,1026.13
2019-02-21T09:07:07.513Z,1026.22
2019-02-21T09:12:07.806Z,1026.18
2019-02-21T09:17:07.772Z,1026.25
2019-02-21T09:22:07.736Z,1026.2
2019-02-21T09:26:07.984Z,1026.26
2019-02-21T09:31:07.327Z,1026.21
2019-02-21T09:36:07.956Z,1026.19
2019-02-21T09:41:06.680Z,1026.25
2019-02-21T09:46:07.965Z,1026.29
2019-02-21T09:51:07.182Z,1026.26
2019-02-21T09:56:07.741Z,1026.38
2019-02-21T10:00:08.725Z,1026.36
2019-02-21T10:05:08.018Z,1026.28
2019-02-21T10:10:09.223Z,1026.35
2019-02-21T10:15:07.496Z,1026.26
2019-02-21T10:20:07.357Z,1026.39
2019-02-21T10:25:08.080Z,1026.38
2019-02-21T10:30:07.526Z,1026.38
2019-02-21T10:35:07.126Z,1026.37
2019-02-21T10:39:08.023Z,1026.31
2019-02-21T10:40:06.593Z,1026.31
2019-02-21T10:44:07.192Z,1026.19
2019-02-21T10:49:06.535Z,1026.16
2019-02-21T10:54:07.171Z,1026.09
2019-02-21T10:59:07.985Z,1025.97
2019-02-21T11:04:07.966Z,1025.95
2019-02-21T11:09:08.403Z,1025.85
2019-02-21T11:13:07.738Z,1025.79
2019-02-21T11:18:07.580Z,1025.7
2019-02-21T11:19:07.715Z,1025.7
2019-02-21T11:23:07.181Z,1025.57
2019-02-21T11:28:07.788Z,1025.49
2019-02-21T11:33:07.633Z,1025.49
2019-02-21T11:38:07.577Z,1025.37
2019-02-21T11:43:07.075Z,1025.39
2019-02-21T11:48:09.849Z,1025.33
2019-02-21T11:52:10.652Z,1025.44
2019-02-21T11:57:07.228Z,1025.18
2019-02-21T12:02:07.428Z,1025.12
2019-02-21T12:07:07.391Z,1025.07
2019-02-21T12:12:10.206Z,1025.12
2019-02-21T12:17:06.712Z,1025.01
2019-02-21T12:22:07.429Z,1025.05
2019-02-21T12:27:07.334Z,1024.92
2019-02-21T12:31:08.292Z,1024.82
2019-02-21T12:32:07.437Z,1024.82
2019-02-21T12:36:07.390Z,1024.82
2019-02-21T12:41:07.768Z,1024.92
2019-02-21T12:46:06.958Z,1024.94
2019-02-21T12:51:07.451Z,1024.9
2019-02-21T12:56:07.360Z,1024.94
2019-02-21T13:01:07.517Z,1025.04
2019-02-21T13:06:07.374Z,1025
2019-02-21T13:10:07.403Z,1025.05
2019-02-21T13:15:08.851Z,1025.07
2019-02-21T13:20:07.374Z,1025.03
2019-02-21T13:25:07.191Z,1025.13
2019-02-21T13:30:07.755Z,1025.12
2019-02-21T13:35:07.812Z,1025.14
2019-02-21T13:40:07.977Z,1025.2
2019-02-21T13:44:07.811Z,1025.18
2019-02-21T13:49:08.073Z,1025.13
2019-02-21T13:54:08.062Z,1025.13
2019-02-21T13:59:07.226Z,1025.09
2019-02-21T14:04:06.907Z,1025.01
2019-02-21T14:09:07.436Z,1024.93
2019-02-21T14:14:07.233Z,1024.98
2019-02-21T14:18:06.855Z,1024.88
2019-02-21T14:23:07.521Z,1024.89
2019-02-21T14:28:06.693Z,1024.9
2019-02-21T14:33:07.474Z,1024.94
2019-02-21T14:38:07.409Z,1024.88
2019-02-21T14:43:08.051Z,1024.9
2019-02-21T14:48:08.318Z,1024.88
2019-02-21T14:52:06.664Z,1024.91
2019-02-21T14:57:07.187Z,1024.97
2019-02-21T15:02:07.592Z,1024.96
2019-02-21T15:07:07.809Z,1025.04
2019-02-21T15:12:07.171Z,1025.09
2019-02-21T15:17:06.539Z,1025.2
2019-02-21T15:22:07.131Z,1025.11
2019-02-21T15:27:09.179Z,1025.13
2019-02-21T15:31:07.868Z,1025.12
2019-02-21T15:36:07.689Z,1025.13
2019-02-21T15:41:07.226Z,1025.08
2019-02-21T15:46:08.573Z,1025.09
2019-02-21T15:51:07.524Z,1025.1
2019-02-21T15:56:06.593Z,1025.05
2019-02-21T16:01:07.352Z,1025.08
2019-02-21T16:05:07.738Z,1025.13
2019-02-21T16:10:08.113Z,1025.14
2019-02-21T16:15:09.604Z,1025.24
2019-02-21T16:20:07.008Z,1025.26
2019-02-21T16:25:07.792Z,1025.19
2019-02-21T16:30:08.985Z,1025.25
2019-02-21T16:35:07.166Z,1025.22
2019-02-21T16:39:08.344Z,1025.23
2019-02-21T16:44:07.545Z,1025.26
2019-02-21T16:49:07.606Z,1025.28
2019-02-21T16:54:07.746Z,1025.24
2019-02-21T16:59:07.987Z,1025.28
2019-02-21T17:04:07.667Z,1025.27
2019-02-21T17:09:07.414Z,1025.3
2019-02-21T17:14:07.116Z,1025.26
2019-02-21T17:18:07.841Z,1025.25
2019-02-21T17:23:07.719Z,1025.2
2019-02-21T17:28:07.568Z,1025.17
2019-02-21T17:33:07.372Z,1025.33
2019-02-21T17:38:07.215Z,1025.31
2019-02-21T17:43:07.572Z,1025.44
2019-02-21T17:48:07.356Z,1025.47
2019-02-21T17:52:06.578Z,1025.47
2019-02-21T17:57:07.151Z,1025.52
2019-02-21T18:02:07.339Z,1025.42
2019-02-21T18:07:06.457Z,1025.48
2019-02-21T18:12:06.696Z,1025.44
2019-02-21T18:17:08.338Z,1025.45
2019-02-21T18:22:06.481Z,1025.56
2019-02-21T18:27:07.108Z,1025.53
2019-02-21T18:31:08.059Z,1025.59
2019-02-21T18:36:08.797Z,1025.62
2019-02-21T18:41:07.090Z,1025.58
2019-02-21T18:46:07.936Z,1025.5
2019-02-21T18:51:07.826Z,1025.56
2019-02-21T18:56:09.122Z,1025.59
2019-02-21T19:01:06.708Z,1025.67
2019-02-21T19:05:07.515Z,1025.73
2019-02-21T19:10:07.842Z,1025.76
2019-02-21T19:15:09.740Z,1025.76
2019-02-21T19:20:07.427Z,1025.75
2019-02-21T19:25:07.302Z,1025.79
2019-02-21T19:30:08.118Z,1025.87
2019-02-21T19:35:07.405Z,1025.75
2019-02-21T19:39:07.914Z,1025.82
2019-02-21T19:44:09.617Z,1025.84
2019-02-21T19:49:08.008Z,1025.78
2019-02-21T19:54:07.223Z,1025.73
2019-02-21T19:59:07.765Z,1025.76
2019-02-21T20:04:07.389Z,1025.78
2019-02-21T20:09:07.865Z,1025.86
2019-02-21T20:14:07.702Z,1025.84
2019-02-21T20:18:07.781Z,1025.79
2019-02-21T20:23:07.312Z,1025.76
2019-02-21T20:24:07.120Z,1025.76
2019-02-21T20:28:07.113Z,1025.82
2019-02-21T20:33:06.755Z,1025.79
2019-02-21T20:38:07.443Z,1025.84
2019-02-21T20:43:07.260Z,1025.81
2019-02-21T20:48:08.034Z,1025.84
2019-02-21T20:53:07.383Z,1025.92
2019-02-21T20:57:07.941Z,1025.89
2019-02-21T21:02:06.863Z,1025.91
2019-02-21T21:07:07.573Z,1025.94
2019-02-21T21:12:06.460Z,1025.9
2019-02-21T21:17:07.639Z,1025.96
2019-02-21T21:22:08.068Z,1025.95
2019-02-21T21:27:07.343Z,1026.08
2019-02-21T21:32:07.534Z,1026.08
2019-02-21T21:36:07.987Z,1026.05
2019-02-21T21:41:07.358Z,1026.11
2019-02-21T21:46:07.058Z,1026.13
2019-02-21T21:51:08.026Z,1026.16
2019-02-21T21:56:08.082Z,1026.11
2019-02-21T22:01:07.471Z,1026.14
2019-02-21T22:06:07.270Z,1026.22
2019-02-21T22:10:07.773Z,1026.23
2019-02-21T22:15:09.418Z,1026.2
2019-02-21T22:16:07.153Z,1026.2
2019-02-21T22:20:06.526Z,1026.28
2019-02-21T22:25:07.988Z,1026.3
2019-02-21T22:30:08.739Z,1026.24
2019-02-21T22:35:07.432Z,1026.29
2019-02-21T22:40:08.003Z,1026.31
2019-02-21T22:45:08.972Z,1026.37
2019-02-21T22:49:08.061Z,1026.42
2019-02-21T22:54:07.075Z,1026.37
2019-02-21T22:59:07.082Z,1026.39
2019-02-21T23:04:07.811Z,1026.46
2019-02-21T23:09:07.479Z,1026.49
2019-02-21T23:14:06.354Z,1026.54
2019-02-21T23:19:07.336Z,1026.56
2019-02-21T23:24:06.223Z,1026.69
2019-02-21T23:28:07.219Z,1026.64
2019-02-21T23:33:07.342Z,1026.71
2019-02-21T23:38:07.370Z,1026.69
2019-02-21T23:43:07.696Z,1026.67
2019-02-21T23:48:07.340Z,1026.74
2019-02-21T23:53:07.249Z,1026.73
2019-02-21T23:58:07.182Z,1026.75
